createdAt,value
2023-05-20T00:04:15.918Z,60.34
2023-05-20T00:13:49.477Z,60.90
2023-05-20T00:23:23.019Z,62.26
2023-05-20T00:32:56.567Z,62.68
2023-05-20T00:42:28.248Z,63.98
2023-05-20T00:52:02.143Z,64.70
2023-05-20T01:01:35.311Z,65.91
2023-05-20T01:11:08.945Z,67.02
2023-05-20T01:20:42.449Z,67.79
2023-05-20T01:30:17.897Z,68.36
2023-05-20T01:39:51.259Z,68.86
2023-05-20T01:49:22.448Z,69.91
2023-05-20T01:58:56.483Z,70.89
2023-05-20T02:08:30.317Z,72.23
2023-05-20T02:18:04.314Z,72.88
2023-05-20T02:27:39.530Z,73.91
2023-05-20T02:37:12.800Z,75.02
2023-05-20T02:46:46.055Z,75.92
2023-05-20T02:56:17.902Z,76.33
2023-05-20T03:05:52.964Z,76.93
2023-05-20T03:15:26.265Z,77.63
2023-05-20T03:24:57.858Z,78.41
2023-05-20T03:34:31.129Z,78.77
2023-05-20T03:44:04.547Z,79.02
2023-05-20T03:53:39.826Z,78.98
2023-05-20T04:03:11.006Z,79.19
2023-05-20T04:12:44.618Z,79.85
2023-05-20T04:22:18.424Z,80.96
2023-05-20T04:31:52.159Z,81.82
2023-05-20T04:41:27.422Z,82.01
2023-05-20T04:50:59.693Z,82.28
2023-05-20T05:00:35.299Z,82.27
2023-05-20T05:10:09.172Z,83.04
2023-05-20T05:19:43.119Z,83.33
2023-05-20T05:29:17.083Z,83.19
2023-05-20T05:30:19.361Z,83.22
2023-05-20T05:39:54.427Z,82.93
2023-05-20T05:40:56.763Z,82.72
2023-05-20T05:50:29.878Z,81.51
2023-05-20T05:51:32.321Z,81.63
2023-05-20T05:52:34.798Z,80.85
2023-05-20T05:53:37.295Z,80.06
2023-05-20T05:54:39.760Z,80.42
2023-05-20T05:55:42.174Z,79.48
2023-05-20T05:56:44.614Z,79.89
2023-05-20T05:57:48.712Z,79.92
2023-05-20T05:58:51.012Z,79.01
2023-05-20T05:59:55.086Z,78.48
2023-05-20T06:00:57.440Z,77.96
2023-05-20T06:02:01.461Z,78.17
2023-05-20T06:03:03.756Z,77.88
2023-05-20T06:04:06.278Z,76.70
2023-05-20T06:05:08.600Z,76.71
2023-05-20T06:06:10.963Z,77.26
2023-05-20T06:07:13.488Z,77.35
2023-05-20T06:08:15.858Z,76.84
2023-05-20T06:09:18.351Z,76.79
2023-05-20T06:10:22.382Z,77.94
2023-05-20T06:11:24.708Z,77.50
2023-05-20T06:12:32.762Z,76.25
2023-05-20T06:13:36.451Z,76.43
2023-05-20T06:14:40.424Z,76.82
2023-05-20T06:15:44.262Z,76.86
2023-05-20T06:16:46.640Z,76.28
2023-05-20T06:17:50.648Z,74.82
2023-05-20T06:18:52.964Z,75.55
2023-05-20T06:19:55.305Z,75.60
2023-05-20T06:20:57.755Z,74.83
2023-05-20T06:22:01.827Z,75.18
2023-05-20T06:23:04.182Z,76.17
2023-05-20T06:24:06.654Z,75.95
2023-05-20T06:25:10.635Z,76.57
2023-05-20T06:26:12.935Z,74.78
2023-05-20T06:35:45.540Z,75.05
2023-05-20T06:36:49.807Z,75.18
2023-05-20T06:37:53.805Z,75.07
2023-05-20T06:38:56.136Z,74.20
2023-05-20T06:39:58.538Z,74.16
2023-05-20T06:41:01.001Z,74.96
2023-05-20T06:42:03.557Z,74.50
2023-05-20T06:43:07.555Z,75.11
2023-05-20T06:44:09.847Z,74.21
2023-05-20T06:45:13.952Z,74.56
2023-05-20T06:46:17.791Z,75.00
2023-05-20T06:47:21.755Z,74.36
2023-05-20T06:48:25.723Z,75.08
2023-05-20T06:49:29.597Z,73.82
2023-05-20T06:59:00.387Z,75.82
2023-05-20T07:00:02.978Z,74.98
2023-05-20T07:01:05.379Z,74.83
2023-05-20T07:02:07.994Z,74.55
2023-05-20T07:03:10.281Z,74.29
2023-05-20T07:04:12.873Z,74.50
2023-05-20T07:05:16.235Z,73.73
2023-05-20T07:06:20.235Z,74.21
2023-05-20T07:07:22.518Z,73.11
2023-05-20T07:08:25.012Z,74.02
2023-05-20T07:09:27.426Z,73.69
2023-05-20T07:10:29.919Z,73.08
2023-05-20T07:11:32.425Z,73.71
2023-05-20T07:12:36.610Z,73.98
2023-05-20T07:13:38.923Z,73.64
2023-05-20T07:14:41.251Z,72.05
2023-05-20T07:15:43.784Z,72.51
2023-05-20T07:16:46.203Z,72.12
2023-05-20T07:17:50.285Z,71.62
2023-05-20T07:18:54.163Z,72.11
2023-05-20T07:19:58.070Z,72.36
2023-05-20T07:21:01.968Z,72.42
2023-05-20T07:22:04.286Z,72.44
2023-05-20T07:23:08.332Z,72.20
2023-05-20T07:24:10.653Z,71.54
2023-05-20T07:25:13.058Z,71.56
2023-05-20T07:26:15.499Z,71.76
2023-05-20T07:27:18.009Z,71.63
2023-05-20T07:28:23.119Z,71.67
2023-05-20T07:29:26.990Z,71.88
2023-05-20T07:30:29.281Z,72.55
2023-05-20T07:31:31.735Z,72.37
2023-05-20T07:32:34.151Z,71.85
2023-05-20T07:33:37.549Z,72.96
2023-05-20T07:34:41.580Z,73.34
2023-05-20T07:35:43.923Z,71.54
2023-05-20T07:36:46.296Z,71.86
2023-05-20T07:37:48.811Z,71.95
2023-05-20T07:39:01.293Z,72.01
2023-05-20T07:39:54.632Z,72.86
2023-05-20T07:40:59.705Z,72.27
2023-05-20T07:42:01.962Z,72.79
2023-05-20T07:43:04.405Z,70.93
2023-05-20T07:44:07.896Z,71.65
2023-05-20T07:45:10.182Z,71.67
2023-05-20T07:46:12.770Z,72.11
2023-05-20T07:47:15.196Z,72.32
2023-05-20T07:48:17.695Z,71.67
2023-05-20T07:49:20.112Z,71.35
2023-05-20T07:50:22.581Z,71.89
2023-05-20T07:51:24.991Z,70.46
2023-05-20T07:52:27.459Z,71.03
2023-05-20T07:53:33.691Z,71.17
2023-05-20T07:54:37.579Z,71.68
2023-05-20T08:04:09.710Z,71.80
2023-05-20T08:05:11.852Z,71.96
2023-05-20T08:06:16.944Z,71.34
2023-05-20T08:07:20.767Z,71.19
2023-05-20T08:08:23.042Z,71.38
2023-05-20T08:09:25.557Z,71.55
2023-05-20T08:10:28.054Z,71.57
2023-05-20T08:11:30.496Z,71.28
2023-05-20T08:12:32.922Z,70.41
2023-05-20T08:13:37.005Z,70.83
2023-05-20T08:14:39.384Z,70.67
2023-05-20T08:15:43.591Z,70.38
2023-05-20T08:16:45.909Z,68.65
2023-05-20T08:17:48.374Z,69.19
2023-05-20T08:18:50.826Z,69.60
2023-05-20T08:19:53.305Z,70.51
2023-05-20T08:20:55.682Z,69.71
2023-05-20T08:21:58.176Z,70.26
2023-05-20T08:23:00.561Z,69.53
2023-05-20T08:24:04.662Z,68.51
2023-05-20T08:25:06.966Z,69.74
2023-05-20T08:26:11.043Z,68.90
2023-05-20T08:27:14.902Z,69.04
2023-05-20T08:28:17.170Z,67.22
2023-05-20T08:29:22.193Z,67.89
2023-05-20T08:30:24.456Z,67.68
2023-05-20T08:31:28.544Z,67.72
2023-05-20T08:32:30.787Z,67.37
2023-05-20T08:33:33.192Z,69.48
2023-05-20T08:34:37.327Z,68.40
2023-05-20T08:35:39.685Z,70.39
2023-05-20T08:36:42.161Z,68.66
2023-05-20T08:37:46.210Z,68.12
2023-05-20T08:38:48.494Z,69.11
2023-05-20T08:39:52.529Z,67.83
2023-05-20T08:40:54.825Z,67.83
2023-05-20T08:41:57.288Z,67.61
2023-05-20T08:42:59.717Z,67.11
2023-05-20T08:44:03.792Z,66.97
2023-05-20T08:45:06.069Z,65.54
2023-05-20T08:46:08.522Z,67.35
2023-05-20T08:47:10.919Z,67.96
2023-05-20T08:48:14.989Z,66.26
2023-05-20T08:49:17.313Z,67.68
2023-05-20T08:50:19.682Z,67.92
2023-05-20T08:51:24.048Z,69.25
2023-05-20T08:52:27.704Z,67.90
2023-05-20T08:53:30.029Z,66.92
2023-05-20T08:54:32.485Z,67.47
2023-05-20T08:55:35.185Z,68.04
2023-05-20T08:56:40.039Z,67.00
2023-05-20T08:57:42.257Z,65.98
2023-05-20T08:58:44.683Z,67.02
2023-05-20T08:59:47.206Z,67.45
2023-05-20T09:00:49.622Z,67.98
2023-05-20T09:01:53.946Z,69.00
2023-05-20T09:02:57.052Z,66.87
2023-05-20T09:04:00.271Z,64.42
2023-05-20T09:05:02.640Z,65.18
2023-05-20T09:06:04.990Z,65.76
2023-05-20T09:07:07.532Z,66.38
2023-05-20T09:08:12.610Z,67.13
2023-05-20T09:09:16.436Z,66.24
2023-05-20T09:10:18.707Z,65.53
2023-05-20T09:11:21.110Z,66.04
2023-05-20T09:12:25.404Z,66.00
2023-05-20T09:13:27.506Z,66.00
2023-05-20T09:14:31.622Z,65.94
2023-05-20T09:15:34.435Z,66.02
2023-05-20T09:16:38.185Z,66.99
2023-05-20T09:17:40.402Z,66.25
2023-05-20T09:18:42.868Z,65.73
2023-05-20T09:19:46.876Z,66.93
2023-05-20T09:20:49.212Z,67.42
2023-05-20T09:21:51.613Z,66.90
2023-05-20T09:22:54.126Z,66.54
2023-05-20T09:23:58.082Z,67.39
2023-05-20T09:25:01.997Z,67.08
2023-05-20T09:26:05.947Z,68.61
2023-05-20T09:27:08.287Z,67.54
2023-05-20T09:28:10.686Z,67.82
2023-05-20T09:29:13.169Z,68.00
2023-05-20T09:30:15.646Z,68.27
2023-05-20T09:31:18.122Z,67.87
2023-05-20T09:32:22.196Z,69.00
2023-05-20T09:33:24.554Z,68.80
2023-05-20T09:34:26.905Z,67.92
2023-05-20T09:35:29.377Z,68.39
2023-05-20T09:36:31.919Z,67.13
2023-05-20T09:37:34.253Z,65.30
2023-05-20T09:38:36.697Z,65.81
2023-05-20T09:39:41.141Z,65.03
2023-05-20T09:40:45.078Z,67.27
2023-05-20T09:41:47.388Z,67.19
2023-05-20T09:42:51.329Z,65.65
2023-05-20T09:43:55.285Z,65.14
2023-05-20T09:44:57.555Z,64.94
2023-05-20T09:46:00.043Z,66.04
2023-05-20T09:47:06.981Z,65.65
2023-05-20T09:48:13.302Z,65.33
2023-05-20T09:49:15.465Z,66.70
2023-05-20T09:50:17.944Z,66.96
2023-05-20T09:51:21.961Z,67.38
2023-05-20T09:52:25.982Z,66.52
2023-05-20T09:53:28.279Z,65.97
2023-05-20T09:54:30.662Z,66.98
2023-05-20T09:55:33.100Z,65.74
2023-05-20T09:56:37.072Z,67.30
2023-05-20T09:57:39.403Z,66.05
2023-05-20T09:58:41.843Z,65.68
2023-05-20T09:59:45.895Z,65.44
2023-05-20T10:00:48.306Z,65.10
2023-05-20T10:01:52.351Z,65.46
2023-05-20T10:02:54.680Z,63.81
2023-05-20T10:03:58.708Z,63.25
2023-05-20T10:05:00.993Z,64.34
2023-05-20T10:06:05.013Z,64.15
2023-05-20T10:07:07.347Z,64.15
2023-05-20T10:08:11.348Z,64.47
2023-05-20T10:09:15.308Z,66.11
2023-05-20T10:10:17.707Z,64.04
2023-05-20T10:11:20.112Z,64.53
2023-05-20T10:12:22.532Z,64.83
2023-05-20T10:13:25.030Z,63.97
2023-05-20T10:14:27.491Z,64.66
2023-05-20T10:15:31.584Z,62.99
2023-05-20T10:16:35.443Z,64.50
2023-05-20T10:17:37.840Z,63.86
2023-05-20T10:18:40.281Z,62.70
2023-05-20T10:19:42.733Z,62.39
2023-05-20T10:20:45.226Z,61.91
2023-05-20T10:21:49.304Z,60.53
2023-05-20T10:22:51.635Z,60.71
2023-05-20T10:23:54.124Z,61.70
2023-05-20T10:24:56.586Z,62.16
2023-05-20T10:25:59.020Z,61.74
2023-05-20T10:27:01.396Z,60.94
2023-05-20T10:28:03.924Z,61.58
2023-05-20T10:29:06.346Z,61.77
2023-05-20T10:30:08.804Z,61.01
2023-05-20T10:31:11.266Z,61.89
2023-05-20T10:32:13.810Z,62.95
2023-05-20T10:33:16.213Z,61.81
2023-05-20T10:34:20.288Z,61.99
2023-05-20T10:35:22.634Z,62.45
2023-05-20T10:36:25.063Z,61.49
2023-05-20T10:37:27.437Z,60.67
2023-05-20T10:38:29.979Z,60.83
2023-05-20T10:39:32.396Z,60.90
2023-05-20T10:40:35.005Z,61.08
2023-05-20T10:41:37.375Z,61.22
2023-05-20T10:42:41.448Z,60.78
2023-05-20T10:43:45.325Z,60.51
2023-05-20T10:44:48.690Z,59.96
2023-05-20T10:45:52.458Z,60.49
2023-05-20T10:47:57.403Z,60.33
2023-05-20T10:48:59.880Z,61.83
2023-05-20T10:50:02.298Z,62.16
2023-05-20T10:51:06.341Z,61.35
2023-05-20T10:52:08.777Z,59.84
2023-05-20T10:53:18.751Z,61.54
2023-05-20T10:54:16.707Z,60.89
2023-05-20T10:55:20.715Z,61.06
2023-05-20T10:56:24.629Z,60.23
2023-05-20T10:57:28.549Z,59.87
2023-05-20T10:58:31.077Z,59.75
2023-05-20T10:59:34.909Z,61.09
2023-05-20T11:00:39.157Z,61.51
2023-05-20T11:01:42.274Z,60.99
2023-05-20T11:02:44.559Z,60.35
2023-05-20T11:03:48.154Z,59.85
2023-05-20T11:04:52.033Z,60.24
2023-05-20T11:05:54.322Z,59.61
2023-05-20T11:06:58.400Z,61.00
2023-05-20T11:08:00.650Z,61.10
2023-05-20T11:09:03.142Z,60.82
2023-05-20T11:10:07.209Z,61.24
2023-05-20T11:11:09.594Z,59.79
2023-05-20T11:12:11.973Z,59.35
2023-05-20T11:13:16.089Z,60.08
2023-05-20T11:14:18.381Z,58.78
2023-05-20T11:15:22.462Z,60.31
2023-05-20T11:16:24.772Z,60.25
2023-05-20T11:17:28.902Z,59.29
2023-05-20T11:18:32.867Z,59.21
2023-05-20T11:19:35.211Z,59.31
2023-05-20T11:20:37.681Z,60.36
2023-05-20T11:21:40.092Z,58.96
2023-05-20T11:22:42.578Z,58.35
2023-05-20T11:23:45.079Z,57.80
2023-05-20T11:24:47.539Z,57.07
2023-05-20T11:25:51.606Z,58.16
2023-05-20T11:26:55.556Z,56.26
2023-05-20T11:27:59.467Z,57.49
2023-05-20T11:29:03.434Z,54.84
2023-05-20T11:30:07.326Z,55.61
2023-05-20T11:31:09.732Z,56.75
2023-05-20T11:32:12.207Z,54.18
2023-05-20T11:33:16.303Z,56.92
2023-05-20T11:34:18.617Z,55.65
2023-05-20T11:35:21.012Z,55.45
2023-05-20T11:36:27.660Z,54.94
2023-05-20T11:37:27.562Z,56.87
2023-05-20T11:38:31.632Z,57.29
2023-05-20T11:39:33.949Z,54.48
2023-05-20T11:40:49.470Z,57.05
2023-05-20T11:41:40.481Z,54.94
2023-05-20T11:42:44.440Z,54.38
2023-05-20T11:43:48.446Z,54.41
2023-05-20T11:44:52.353Z,53.18
2023-05-20T11:45:54.859Z,54.50
2023-05-20T11:46:57.311Z,54.23
2023-05-20T11:47:59.828Z,53.27
2023-05-20T11:49:03.827Z,54.42
2023-05-20T11:50:07.752Z,54.24
2023-05-20T11:51:11.724Z,51.48
2023-05-20T11:52:14.051Z,53.37
2023-05-20T11:53:16.475Z,53.58
2023-05-20T11:54:18.944Z,53.30
2023-05-20T11:55:23.032Z,55.20
2023-05-20T11:56:26.970Z,54.55
2023-05-20T11:57:29.310Z,52.76
2023-05-20T11:58:31.863Z,52.45
2023-05-20T11:59:35.846Z,53.60
2023-05-20T12:00:50.477Z,53.88
2023-05-20T12:01:43.777Z,53.57
2023-05-20T12:02:47.763Z,54.13
2023-05-20T12:03:51.788Z,52.12
2023-05-20T12:04:55.587Z,51.23
2023-05-20T12:05:59.441Z,52.60
2023-05-20T12:07:01.748Z,51.15
2023-05-20T12:08:05.788Z,51.26
2023-05-20T12:09:10.027Z,52.46
2023-05-20T12:10:13.991Z,51.80
2023-05-20T12:11:17.865Z,52.77
2023-05-20T12:12:20.304Z,53.16
2023-05-20T12:13:24.363Z,53.28
2023-05-20T12:14:28.314Z,52.70
2023-05-20T12:15:32.225Z,51.62
2023-05-20T12:16:37.168Z,51.72
2023-05-20T12:17:39.482Z,51.90
2023-05-20T12:18:41.959Z,53.25
2023-05-20T12:19:44.433Z,52.94
2023-05-20T12:20:48.494Z,51.28
2023-05-20T12:21:52.450Z,51.36
2023-05-20T12:22:56.356Z,53.81
2023-05-20T12:23:58.613Z,52.68
2023-05-20T12:25:03.680Z,51.89
2023-05-20T12:26:06.992Z,51.83
2023-05-20T12:27:09.581Z,50.81
2023-05-20T12:28:13.318Z,48.38
2023-05-20T12:29:16.704Z,50.69
2023-05-20T12:30:20.755Z,52.75
2023-05-20T12:31:23.225Z,50.46
2023-05-20T12:32:25.656Z,50.88
2023-05-20T12:33:27.955Z,51.67
2023-05-20T12:34:31.993Z,51.02
2023-05-20T12:35:35.915Z,50.46
2023-05-20T12:36:38.243Z,51.88
2023-05-20T12:37:42.237Z,50.71
2023-05-20T12:38:45.579Z,51.54
2023-05-20T12:39:47.997Z,52.34
2023-05-20T12:40:52.118Z,51.75
2023-05-20T12:41:54.416Z,52.84
2023-05-20T12:42:58.482Z,51.29
2023-05-20T12:44:04.625Z,50.10
2023-05-20T12:45:08.488Z,51.31
2023-05-20T12:46:12.399Z,50.62
2023-05-20T12:47:14.886Z,51.20
2023-05-20T12:48:17.351Z,51.02
2023-05-20T12:49:20.847Z,52.50
2023-05-20T12:50:23.232Z,49.51
2023-05-20T12:51:25.725Z,49.73
2023-05-20T12:52:28.221Z,48.55
2023-05-20T12:53:32.325Z,48.96
2023-05-20T12:54:34.527Z,48.28
2023-05-20T12:55:37.998Z,47.23
2023-05-20T12:56:41.927Z,48.29
2023-05-20T12:57:45.888Z,48.00
2023-05-20T12:58:48.199Z,47.29
2023-05-20T12:59:50.824Z,47.53
2023-05-20T13:00:53.032Z,48.16
2023-05-20T13:01:55.548Z,47.68
2023-05-20T13:02:59.743Z,47.44
2023-05-20T13:04:03.603Z,49.92
2023-05-20T13:05:07.454Z,48.16
2023-05-20T13:06:12.419Z,46.90
2023-05-20T13:07:16.327Z,47.93
2023-05-20T13:08:20.305Z,49.01
2023-05-20T13:09:22.691Z,47.83
2023-05-20T13:10:25.136Z,47.84
2023-05-20T13:11:27.620Z,47.97
2023-05-20T13:12:31.730Z,46.90
2023-05-20T13:13:34.051Z,47.14
2023-05-20T13:14:36.524Z,47.37
2023-05-20T13:15:38.990Z,49.44
2023-05-20T13:16:44.129Z,50.23
2023-05-20T13:17:48.068Z,49.64
2023-05-20T13:18:51.901Z,48.92
2023-05-20T13:19:54.287Z,47.06
2023-05-20T13:20:56.747Z,47.02
2023-05-20T13:21:59.239Z,49.97
2023-05-20T13:23:01.849Z,48.46
2023-05-20T13:24:06.867Z,48.97
2023-05-20T13:25:09.112Z,45.73
2023-05-20T13:26:13.169Z,48.00
2023-05-20T13:27:18.107Z,46.48
2023-05-20T13:28:21.983Z,45.97
2023-05-20T13:29:25.932Z,46.83
2023-05-20T13:30:29.854Z,44.94
2023-05-20T13:31:32.207Z,46.75
2023-05-20T13:32:34.659Z,45.42
2023-05-20T13:33:38.116Z,45.40
2023-05-20T13:34:42.090Z,44.62
2023-05-20T13:35:44.426Z,46.43
2023-05-20T13:36:48.496Z,44.58
2023-05-20T13:37:50.837Z,46.19
2023-05-20T13:38:53.287Z,45.54
2023-05-20T13:39:55.855Z,44.69
2023-05-20T13:41:00.933Z,45.67
2023-05-20T13:42:03.194Z,45.04
2023-05-20T13:43:05.718Z,44.35
2023-05-20T13:44:09.727Z,47.19
2023-05-20T13:45:13.691Z,48.23
2023-05-20T13:46:16.173Z,48.76
2023-05-20T13:47:18.534Z,46.76
2023-05-20T13:48:21.079Z,46.20
2023-05-20T13:49:25.159Z,47.25
2023-05-20T13:50:27.501Z,46.89
2023-05-20T13:51:29.954Z,44.56
2023-05-20T13:52:32.424Z,43.96
2023-05-20T13:53:36.496Z,45.40
2023-05-20T13:54:38.821Z,46.41
2023-05-20T13:55:41.343Z,45.26
2023-05-20T13:56:43.858Z,46.17
2023-05-20T13:57:47.877Z,44.78
2023-05-20T13:58:50.258Z,46.22
2023-05-20T13:59:52.685Z,44.77
2023-05-20T14:00:56.141Z,47.63
2023-05-20T14:02:00.293Z,47.25
2023-05-20T14:03:05.221Z,46.52
2023-05-20T14:04:07.540Z,48.94
2023-05-20T14:05:11.618Z,47.40
2023-05-20T14:06:13.911Z,45.94
2023-05-20T14:07:18.056Z,44.09
2023-05-20T14:08:20.332Z,43.66
2023-05-20T14:09:22.873Z,43.34
2023-05-20T14:10:26.849Z,45.78
2023-05-20T14:11:30.847Z,46.80
2023-05-20T14:12:34.780Z,45.91
2023-05-20T14:13:37.074Z,44.49
2023-05-20T14:14:39.474Z,46.04
2023-05-20T14:15:42.004Z,45.34
2023-05-20T14:16:46.074Z,47.75
2023-05-20T14:17:48.374Z,47.88
2023-05-20T14:18:50.884Z,46.05
2023-05-20T14:19:53.354Z,47.29
2023-05-20T14:20:55.828Z,47.62
2023-05-20T14:22:00.809Z,47.24
2023-05-20T14:23:03.102Z,46.79
2023-05-20T14:24:06.637Z,48.36
2023-05-20T14:25:10.594Z,46.20
2023-05-20T14:26:14.548Z,47.17
2023-05-20T14:27:17.979Z,46.85
2023-05-20T14:28:20.354Z,47.81
2023-05-20T14:29:24.384Z,45.69
2023-05-20T14:30:26.718Z,45.70
2023-05-20T14:31:31.749Z,47.41
2023-05-20T14:32:34.027Z,48.12
2023-05-20T14:33:38.038Z,46.68
2023-05-20T14:34:40.412Z,47.20
2023-05-20T14:36:48.535Z,48.32
2023-05-20T14:37:50.831Z,47.66
2023-05-20T14:38:53.314Z,46.52
2023-05-20T14:39:55.761Z,46.11
2023-05-20T14:40:58.389Z,46.17
2023-05-20T14:42:01.853Z,48.28
2023-05-20T14:43:09.020Z,47.77
2023-05-20T14:44:11.328Z,48.83
2023-05-20T14:45:16.285Z,48.91
2023-05-20T14:46:18.563Z,49.03
2023-05-20T14:47:21.103Z,49.00
2023-05-20T14:48:23.564Z,48.15
2023-05-20T14:49:35.766Z,47.07
2023-05-20T14:50:39.366Z,45.61
2023-05-20T14:51:42.650Z,46.87
2023-05-20T14:52:46.047Z,44.87
2023-05-20T14:53:50.952Z,45.57
2023-05-20T14:54:54.805Z,46.45
2023-05-20T14:55:57.156Z,47.40
2023-05-20T14:57:02.198Z,47.13
2023-05-20T14:58:04.522Z,46.90
2023-05-20T14:59:06.989Z,47.10
2023-05-20T15:00:11.012Z,48.32
2023-05-20T15:01:14.994Z,47.68
2023-05-20T15:02:17.273Z,48.61
2023-05-20T15:03:19.776Z,48.34
2023-05-20T15:04:23.937Z,50.62
2023-05-20T15:05:27.822Z,49.95
2023-05-20T15:06:30.184Z,50.21
2023-05-20T15:07:34.220Z,51.77
2023-05-20T15:08:36.611Z,52.03
2023-05-20T15:09:40.026Z,51.36
2023-05-20T15:10:43.971Z,52.50
2023-05-20T15:11:46.268Z,52.25
2023-05-20T15:12:48.744Z,51.98
2023-05-20T15:13:51.158Z,51.41
2023-05-20T15:14:53.599Z,52.09
2023-05-20T15:15:57.885Z,52.80
2023-05-20T15:17:01.943Z,53.00
2023-05-20T15:18:04.103Z,53.11
2023-05-20T15:19:07.708Z,52.02
2023-05-20T15:20:11.615Z,52.07
2023-05-20T15:21:15.451Z,52.47
2023-05-20T15:22:19.411Z,53.51
2023-05-20T15:23:21.726Z,52.16
2023-05-20T15:24:26.797Z,52.16
2023-05-20T15:25:31.636Z,52.78
2023-05-20T15:26:36.467Z,53.28
2023-05-20T15:27:40.324Z,53.21
2023-05-20T15:28:42.693Z,53.25
2023-05-20T15:29:46.695Z,52.70
2023-05-20T15:30:50.651Z,53.72
2023-05-20T15:31:54.614Z,53.40
2023-05-20T15:32:58.482Z,53.60
2023-05-20T15:34:03.573Z,55.00
2023-05-20T15:35:05.734Z,53.46
2023-05-20T15:36:10.782Z,53.33
2023-05-20T15:37:13.057Z,54.52
2023-05-20T15:38:15.538Z,52.41
2023-05-20T15:39:19.643Z,53.23
2023-05-20T15:40:22.014Z,51.80
2023-05-20T15:41:24.523Z,52.64
2023-05-20T15:42:28.568Z,52.71
2023-05-20T15:43:32.562Z,51.51
2023-05-20T15:44:36.446Z,51.56
2023-05-20T15:45:40.418Z,51.40
2023-05-20T15:46:44.445Z,50.35
2023-05-20T15:47:48.347Z,51.64
2023-05-20T15:48:50.674Z,51.73
2023-05-20T15:49:53.283Z,52.35
2023-05-20T15:50:55.597Z,51.61
2023-05-20T15:52:03.352Z,52.21
2023-05-20T15:53:04.474Z,52.12
2023-05-20T15:54:06.779Z,52.34
2023-05-20T15:55:10.832Z,52.29
2023-05-20T15:56:13.177Z,53.43
2023-05-20T15:57:18.205Z,52.54
2023-05-20T15:58:22.051Z,52.95
2023-05-20T15:59:26.019Z,53.02
2023-05-20T16:00:28.360Z,53.87
2023-05-20T16:01:32.419Z,53.39
2023-05-20T16:02:36.343Z,53.81
2023-05-20T16:03:37.299Z,53.61
2023-05-20T16:04:41.325Z,54.02
2023-05-20T16:05:43.558Z,55.21
2023-05-20T16:06:46.064Z,55.71
2023-05-20T16:07:48.563Z,55.34
2023-05-20T16:08:52.864Z,55.25
2023-05-20T16:09:58.960Z,55.34
2023-05-20T16:11:06.844Z,55.60
2023-05-20T16:12:08.834Z,55.77
2023-05-20T16:13:11.231Z,55.56
2023-05-20T16:14:15.291Z,55.79
2023-05-20T16:15:17.628Z,56.52
2023-05-20T16:16:20.171Z,55.85
2023-05-20T16:17:22.603Z,56.28
2023-05-20T16:18:26.672Z,55.87
2023-05-20T16:19:30.039Z,55.28
2023-05-20T16:20:32.483Z,56.82
2023-05-20T16:21:34.807Z,55.01
2023-05-20T16:22:39.014Z,54.77
2023-05-20T16:23:42.948Z,53.64
2023-05-20T16:24:45.284Z,54.42
2023-05-20T16:25:49.397Z,54.17
2023-05-20T16:26:53.283Z,54.88
2023-05-20T16:27:55.660Z,54.75
2023-05-20T16:28:58.141Z,55.33
2023-05-20T16:30:01.596Z,54.99
2023-05-20T16:31:04.025Z,55.23
2023-05-20T16:32:08.159Z,55.07
2023-05-20T16:33:10.502Z,53.84
2023-05-20T16:34:12.954Z,54.12
2023-05-20T16:35:16.994Z,54.29
2023-05-20T16:36:19.338Z,53.28
2023-05-20T16:37:21.762Z,53.56
2023-05-20T16:38:24.260Z,53.45
2023-05-20T16:39:28.302Z,53.66
2023-05-20T16:40:32.323Z,54.46
2023-05-20T16:41:34.516Z,54.71
2023-05-20T16:42:38.508Z,54.72
2023-05-20T16:43:40.897Z,54.81
2023-05-20T16:44:45.171Z,53.69
2023-05-20T16:45:49.074Z,53.32
2023-05-20T16:46:53.995Z,53.28
2023-05-20T16:47:53.948Z,54.10
2023-05-20T16:48:57.329Z,54.60
2023-05-20T16:50:01.297Z,53.08
2023-05-20T16:51:03.627Z,54.70
2023-05-20T16:52:06.160Z,53.67
2023-05-20T16:53:08.609Z,53.45
2023-05-20T16:54:13.854Z,53.06
2023-05-20T16:55:16.149Z,53.03
2023-05-20T16:56:18.589Z,54.28
2023-05-20T16:57:22.659Z,55.43
2023-05-20T16:58:26.598Z,54.94
2023-05-20T16:59:28.900Z,55.27
2023-05-20T17:00:33.132Z,55.29
2023-05-20T17:01:37.002Z,54.70
2023-05-20T17:02:40.818Z,55.18
2023-05-20T17:03:44.716Z,54.89
2023-05-20T17:04:48.684Z,54.69
2023-05-20T17:05:52.570Z,56.06
2023-05-20T17:06:54.862Z,55.61
2023-05-20T17:07:57.329Z,56.56
2023-05-20T17:08:59.803Z,55.54
2023-05-20T17:10:02.280Z,56.35
2023-05-20T17:11:04.736Z,56.50
2023-05-20T17:12:08.820Z,56.71
2023-05-20T17:13:12.827Z,57.03
2023-05-20T17:14:16.727Z,58.11
2023-05-20T17:15:19.005Z,56.74
2023-05-20T17:16:24.118Z,57.04
2023-05-20T17:17:26.253Z,57.82
2023-05-20T17:18:28.764Z,57.04
2023-05-20T17:19:31.286Z,57.31
2023-05-20T17:20:35.405Z,57.20
2023-05-20T17:21:39.248Z,57.23
2023-05-20T17:22:43.195Z,56.58
2023-05-20T17:23:45.511Z,57.65
2023-05-20T17:24:47.913Z,58.07
2023-05-20T17:25:50.454Z,57.71
2023-05-20T17:26:55.462Z,57.43
2023-05-20T17:27:57.762Z,58.52
2023-05-20T17:29:01.689Z,57.99
2023-05-20T17:30:05.695Z,58.37
2023-05-20T17:31:07.909Z,58.68
2023-05-20T17:32:11.959Z,58.88
2023-05-20T17:33:16.945Z,58.87
2023-05-20T17:34:20.748Z,59.09
2023-05-20T17:35:24.610Z,59.32
2023-05-20T17:44:56.165Z,62.40
2023-05-20T17:46:00.146Z,62.17
2023-05-20T17:47:02.427Z,62.31
2023-05-20T17:48:04.942Z,61.79
2023-05-20T17:49:07.444Z,61.94
2023-05-20T17:50:09.837Z,61.63
2023-05-20T17:51:13.858Z,61.40
2023-05-20T17:52:17.882Z,61.54
2023-05-20T17:53:22.234Z,62.06
2023-05-20T17:54:25.235Z,61.54
2023-05-20T17:55:29.231Z,61.58
2023-05-20T17:56:31.455Z,62.01
2023-05-20T17:57:33.969Z,62.28
2023-05-20T17:58:38.006Z,62.55
2023-05-20T17:59:40.402Z,62.11
2023-05-20T18:00:42.881Z,62.44
2023-05-20T18:01:46.976Z,62.65
2023-05-20T18:02:50.912Z,62.87
2023-05-20T18:03:53.348Z,62.12
2023-05-20T18:04:57.265Z,62.35
2023-05-20T18:05:59.640Z,62.52
2023-05-20T18:07:02.027Z,63.21
2023-05-20T18:08:04.530Z,62.60
2023-05-20T18:09:07.894Z,62.73
2023-05-20T18:10:11.894Z,62.84
2023-05-20T18:11:14.214Z,62.64
2023-05-20T18:12:16.662Z,63.37
2023-05-20T18:13:21.899Z,63.36
2023-05-20T18:14:25.988Z,63.61
2023-05-20T18:15:29.929Z,63.59
2023-05-20T18:16:33.177Z,63.57
2023-05-20T18:17:40.126Z,63.58
2023-05-20T18:18:43.008Z,63.71
2023-05-20T18:28:12.322Z,65.64
2023-05-20T18:29:16.330Z,66.18
2023-05-20T18:30:20.314Z,65.75
2023-05-20T18:31:24.214Z,65.43
2023-05-20T18:32:28.237Z,65.50
2023-05-20T18:33:30.511Z,65.31
2023-05-20T18:34:32.922Z,65.27
2023-05-20T18:35:37.019Z,65.52
2023-05-20T18:36:41.038Z,65.25
2023-05-20T18:37:44.797Z,65.25
2023-05-20T18:38:47.121Z,65.34
2023-05-20T18:39:49.571Z,65.25
2023-05-20T18:40:52.000Z,65.23
2023-05-20T18:41:56.048Z,65.53
2023-05-20T18:42:59.973Z,65.86
2023-05-20T18:44:05.620Z,65.50
2023-05-20T18:45:06.243Z,65.60
2023-05-20T18:46:08.747Z,65.65
2023-05-20T18:47:12.788Z,65.76
2023-05-20T18:48:23.274Z,66.03
2023-05-20T18:49:19.143Z,65.99
2023-05-20T18:50:21.546Z,65.79
2023-05-20T18:51:23.989Z,66.02
2023-05-20T18:52:26.468Z,66.09
2023-05-20T18:53:30.505Z,66.12
2023-05-20T18:54:34.421Z,66.28
2023-05-20T18:55:38.359Z,66.72
2023-05-20T18:56:40.687Z,66.79
2023-05-20T18:57:44.740Z,66.53
2023-05-20T18:58:52.705Z,67.03
2023-05-20T18:59:56.416Z,67.07
2023-05-20T19:00:58.764Z,67.34
2023-05-20T19:02:02.734Z,67.68
2023-05-20T19:11:38.000Z,69.28
2023-05-20T19:21:06.984Z,70.87
2023-05-20T19:30:40.745Z,72.57
2023-05-20T19:40:15.862Z,73.76
2023-05-20T19:49:50.861Z,74.91
2023-05-20T19:59:21.816Z,75.69
2023-05-20T20:08:56.982Z,76.64
2023-05-20T20:18:29.865Z,77.65
2023-05-20T20:28:04.040Z,78.36
2023-05-20T20:37:39.396Z,78.87
2023-05-20T20:47:12.507Z,79.26
2023-05-20T20:56:44.709Z,79.68
2023-05-20T21:06:20.055Z,80.06
2023-05-20T21:15:54.292Z,80.78
2023-05-20T21:25:26.357Z,81.72
2023-05-20T21:35:03.449Z,82.17
2023-05-20T21:44:32.802Z,83.00
2023-05-20T21:54:07.937Z,83.32
2023-05-20T22:03:47.342Z,83.84
2023-05-20T22:13:19.943Z,84.71
2023-05-20T22:14:22.092Z,84.30
2023-05-20T22:33:30.649Z,85.16
2023-05-20T22:43:05.515Z,86.58
2023-05-20T22:52:43.541Z,87.63
2023-05-20T23:02:14.163Z,88.62